Time;durP1;ratioP1;P1;durP2;ratioP2;P2;SDS_P1;SDS_P2;PMS_P1;PMS_P2;Temp;Humidity;BMP_temperature;BMP_pressure;BME280_temperature;BME280_humidity;BME280_pressure;Samples;Min_cycle;Max_cycle;Signal;HPM_P1;HPM_P2
2022/10/10 00:01:16;;;;;;;20.30;12.90;;;20.20;90.30;;;;;;5013402;28;20044;-70
2022/10/10 00:03:42;;;;;;;16.35;12.13;;;20.10;90.30;;;;;;5013355;28;20348;-70
2022/10/10 00:06:09;;;;;;;18.40;12.23;;;20.10;90.30;;;;;;5013043;28;20026;-71
2022/10/10 00:08:35;;;;;;;17.65;13.07;;;20.20;90.40;;;;;;5013272;28;20030;-69
2022/10/10 00:11:01;;;;;;;16.15;11.90;;;20.10;90.30;;;;;;5013115;28;20088;-71
2022/10/10 00:13:26;;;;;;;18.63;12.13;;;20.20;90.50;;;;;;5012965;28;20030;-71
2022/10/10 00:15:52;;;;;;;21.15;11.48;;;20.10;90.40;;;;;;5013120;28;20072;-72
2022/10/10 00:18:18;;;;;;;17.75;12.27;;;20.10;90.40;;;;;;5012979;28;20077;-68
2022/10/10 00:20:43;;;;;;;20.25;12.98;;;20.20;90.40;;;;;;5012960;28;20037;-71
2022/10/10 00:23:09;;;;;;;19.25;13.05;;;20.10;90.30;;;;;;5012679;28;20380;-72
2022/10/10 00:25:36;;;;;;;19.15;12.90;;;20.10;90.40;;;;;;5017316;28;20029;-71
2022/10/10 00:28:03;;;;;;;20.33;12.55;;;20.10;90.30;;;;;;5017136;28;20050;-71
2022/10/10 00:30:29;;;;;;;17.30;11.82;;;20.10;90.30;;;;;;5016979;28;20049;-71
2022/10/10 00:32:57;;;;;;;16.77;12.93;;;20.10;90.30;;;;;;5016773;28;20069;-71
2022/10/10 00:35:22;;;;;;;15.02;11.88;;;20.10;90.30;;;;;;5016852;28;20022;-71
2022/10/10 00:37:48;;;;;;;16.90;11.43;;;20.10;90.40;;;;;;5016798;28;20395;-71
2022/10/10 00:40:14;;;;;;;16.33;12.80;;;20.00;90.40;;;;;;5016912;28;20057;-71
2022/10/10 00:42:39;;;;;;;18.33;12.95;;;20.00;90.50;;;;;;5017314;28;20379;-69
2022/10/10 00:45:41;;;;;;;16.48;13.02;;;20.00;90.30;;;;;;5017269;28;20025;-70
2022/10/10 00:48:30;;;;;;;16.20;12.30;;;20.00;90.40;;;;;;5018065;28;20053;-69
2022/10/10 00:51:13;;;;;;;18.67;11.60;;;20.00;90.50;;;;;;5011664;28;20041;-68
2022/10/10 00:53:45;;;;;;;18.00;11.98;;;20.00;90.30;;;;;;5017315;28;20022;-71
2022/10/10 00:56:14;;;;;;;16.63;11.50;;;20.10;90.20;;;;;;5017599;28;20037;-73
2022/10/10 00:58:44;;;;;;;14.15;11.43;;;20.10;90.10;;;;;;5032476;28;20091;-72
2022/10/10 01:01:09;;;;;;;16.80;11.65;;;20.10;90.10;;;;;;5036754;28;20053;-73
2022/10/10 01:03:35;;;;;;;16.75;11.10;;;20.10;90.20;;;;;;5036865;28;20056;-72
2022/10/10 01:06:01;;;;;;;14.13;11.20;;;20.10;90.20;;;;;;5036149;28;20022;-71
2022/10/10 01:08:27;;;;;;;16.75;11.25;;;20.10;90.20;;;;;;5036255;28;20030;-71
2022/10/10 01:11:29;;;;;;;17.75;12.18;;;20.00;90.10;;;;;;5018176;28;20041;-70
2022/10/10 01:14:05;;;;;;;16.27;11.35;;;20.00;90.30;;;;;;5036210;28;20018;-69
2022/10/10 01:16:54;;;;;;;17.52;10.98;;;20.00;90.10;;;;;;5035695;28;20029;-69
2022/10/10 01:19:22;;;;;;;18.77;11.15;;;20.10;90.10;;;;;;5035129;28;20105;-68
2022/10/10 01:22:03;;;;;;;15.10;10.63;;;20.00;90.20;;;;;;5035637;28;20021;-71
2022/10/10 01:24:58;;;;;;;11.80;9.88;;;20.00;90.20;;;;;;5035848;28;20025;-70
2022/10/10 01:27:47;;;;;;;15.55;10.00;;;20.00;90.20;;;;;;5036091;28;20029;-69
2022/10/10 01:30:20;;;;;;;13.70;10.70;;;20.00;90.20;;;;;;5035655;28;20064;-69
2022/10/10 01:33:34;;;;;;;18.85;11.23;;;20.00;89.90;;;;;;5035745;28;20029;-69
2022/10/10 01:36:03;;;;;;;16.30;11.43;;;20.00;90.10;;;;;;4998433;28;20045;-70
2022/10/10 01:38:45;;;;;;;17.02;11.30;;;19.90;89.90;;;;;;5035609;28;20395;-69
2022/10/10 01:41:26;;;;;;;15.88;11.50;;;19.90;89.80;;;;;;5035511;28;20033;-69
2022/10/10 01:43:53;;;;;;;13.57;11.15;;;19.90;90.20;;;;;;5035319;28;20025;-70
2022/10/10 01:46:19;;;;;;;16.65;12.00;;;19.90;90.00;;;;;;5035460;28;20363;-70
2022/10/10 01:48:49;;;;;;;14.95;12.55;;;19.90;90.10;;;;;;5017398;28;20029;-71
2022/10/10 01:51:26;;;;;;;18.27;14.07;;;19.90;90.10;;;;;;5035186;28;20037;-70
2022/10/10 01:54:04;;;;;;;21.02;12.95;;;19.90;90.30;;;;;;5034990;28;20030;-72
2022/10/10 01:56:48;;;;;;;16.40;13.48;;;19.90;90.40;;;;;;5035299;28;20040;-71
2022/10/10 01:59:23;;;;;;;18.10;13.95;;;19.90;90.50;;;;;;5035080;28;20498;-73
2022/10/10 02:02:00;;;;;;;19.55;14.50;;;19.90;90.60;;;;;;5035187;28;20668;-70
2022/10/10 02:04:39;;;;;;;18.30;14.82;;;19.90;90.50;;;;;;5035231;28;20032;-69
2022/10/10 02:07:23;;;;;;;21.35;14.48;;;19.90;90.70;;;;;;5034906;28;20036;-72
2022/10/10 02:09:51;;;;;;;24.52;14.20;;;19.90;90.70;;;;;;5034869;28;20332;-69
2022/10/10 02:12:18;;;;;;;16.42;14.27;;;19.90;90.60;;;;;;5034579;28;20033;-69
2022/10/10 02:14:47;;;;;;;19.33;15.70;;;19.90;90.70;;;;;;5034793;28;20122;-69
2022/10/10 02:17:15;;;;;;;22.77;14.50;;;19.90;90.60;;;;;;5034861;28;20111;-71
2022/10/10 02:19:47;;;;;;;17.52;12.85;;;19.90;90.70;;;;;;5034558;28;20109;-70
2022/10/10 02:22:13;;;;;;;16.95;12.80;;;19.90;90.70;;;;;;5034853;28;20022;-68
2022/10/10 02:24:39;;;;;;;16.85;12.30;;;19.90;90.80;;;;;;5034538;28;20029;-69
2022/10/10 02:27:30;;;;;;;16.15;12.43;;;19.90;90.90;;;;;;5034246;28;20061;-69
2022/10/10 02:29:59;;;;;;;16.15;13.20;;;19.80;91.20;;;;;;5034473;28;20037;-70
2022/10/10 02:32:35;;;;;;;19.38;13.82;;;19.80;91.00;;;;;;5034190;28;20116;-68
2022/10/10 02:35:10;;;;;;;16.95;14.50;;;19.80;91.10;;;;;;5034262;28;20126;-70
2022/10/10 02:37:38;;;;;;;20.23;14.80;;;19.80;91.10;;;;;;5033907;28;20390;-70
2022/10/10 02:40:06;;;;;;;19.17;15.15;;;19.80;91.10;;;;;;5034278;28;20087;-69
2022/10/10 02:42:34;;;;;;;17.00;14.40;;;19.80;91.10;;;;;;5034415;28;20051;-71
2022/10/10 02:45:00;;;;;;;16.65;14.50;;;19.80;91.10;;;;;;5033935;28;20095;-69
2022/10/10 02:47:26;;;;;;;24.15;16.08;;;19.80;91.10;;;;;;5033229;28;20061;-69
2022/10/10 02:49:52;;;;;;;19.33;15.35;;;19.70;91.10;;;;;;5034315;28;20049;-70
2022/10/10 02:52:18;;;;;;;17.30;14.63;;;19.70;91.10;;;;;;5034031;28;20044;-69
2022/10/10 02:54:44;;;;;;;17.42;13.70;;;19.60;91.20;;;;;;5034017;28;20056;-68
2022/10/10 02:57:09;;;;;;;16.92;13.35;;;19.50;91.30;;;;;;5033859;28;20073;-71
2022/10/10 02:59:35;;;;;;;22.35;14.20;;;19.50;91.40;;;;;;5033893;28;20466;-71
2022/10/10 03:02:01;;;;;;;17.05;13.10;;;19.50;91.30;;;;;;5033819;28;20021;-70
2022/10/10 03:04:27;;;;;;;14.52;11.95;;;19.50;91.40;;;;;;5033828;28;20446;-71
2022/10/10 03:06:53;;;;;;;18.92;12.68;;;19.60;91.30;;;;;;5033470;28;20025;-69
2022/10/10 03:09:19;;;;;;;18.63;12.30;;;19.60;91.30;;;;;;5033715;28;20109;-70
2022/10/10 03:11:45;;;;;;;17.05;12.88;;;19.50;91.20;;;;;;5033571;28;20129;-69
2022/10/10 03:14:10;;;;;;;17.63;13.52;;;19.50;91.40;;;;;;5033615;28;20025;-68
2022/10/10 03:16:36;;;;;;;16.00;12.52;;;19.40;91.30;;;;;;5033654;28;20076;-69
2022/10/10 03:19:02;;;;;;;17.75;13.35;;;19.40;91.40;;;;;;5034180;28;20100;-72
2022/10/10 03:21:28;;;;;;;17.85;13.05;;;19.40;91.40;;;;;;5033126;28;20095;-70
2022/10/10 03:23:53;;;;;;;16.27;12.60;;;19.40;91.50;;;;;;5033496;28;20031;-71
2022/10/10 03:26:19;;;;;;;15.48;13.02;;;19.40;91.50;;;;;;5033034;28;20076;-69
2022/10/10 03:28:45;;;;;;;15.50;12.70;;;19.50;91.60;;;;;;5033213;28;20030;-70
2022/10/10 03:31:11;;;;;;;16.83;12.85;;;19.50;91.40;;;;;;5033433;28;20037;-71
2022/10/10 03:33:37;;;;;;;19.60;14.30;;;19.50;91.50;;;;;;5015271;28;20052;-73
2022/10/10 03:36:03;;;;;;;16.58;12.82;;;19.50;91.50;;;;;;5033150;28;20032;-74
2022/10/10 03:38:28;;;;;;;17.10;13.88;;;19.40;91.40;;;;;;5033150;28;20029;-73
2022/10/10 03:40:54;;;;;;;15.40;12.43;;;19.40;91.60;;;;;;5033018;28;20021;-71
2022/10/10 03:43:20;;;;;;;20.10;14.88;;;19.40;91.60;;;;;;5033041;28;20163;-72
2022/10/10 03:45:49;;;;;;;20.85;13.95;;;19.40;91.50;;;;;;5033233;28;20032;-71
2022/10/10 03:48:15;;;;;;;18.85;13.55;;;19.40;91.70;;;;;;5033085;28;20103;-72
2022/10/10 03:50:41;;;;;;;16.40;13.07;;;19.40;91.60;;;;;;5032833;28;20098;-69
2022/10/10 03:53:07;;;;;;;17.63;13.52;;;19.40;91.70;;;;;;5033030;28;20057;-71
2022/10/10 03:55:33;;;;;;;18.40;13.88;;;19.40;91.70;;;;;;5032833;28;20014;-71
2022/10/10 03:57:59;;;;;;;17.45;13.43;;;19.40;91.70;;;;;;5032478;28;20188;-72
2022/10/10 04:00:25;;;;;;;17.25;13.48;;;19.40;91.70;;;;;;5032895;28;20089;-72
2022/10/10 04:02:52;;;;;;;17.15;13.02;;;19.40;91.70;;;;;;5032729;28;20029;-70
2022/10/10 04:05:18;;;;;;;15.45;13.38;;;19.50;91.80;;;;;;5032790;28;20107;-70
2022/10/10 04:07:43;;;;;;;16.63;13.57;;;19.40;91.70;;;;;;5032554;28;20471;-72
2022/10/10 04:10:09;;;;;;;16.33;12.93;;;19.40;91.70;;;;;;5032940;28;20017;-72
2022/10/10 04:12:35;;;;;;;17.10;13.70;;;19.30;91.70;;;;;;5033056;28;20129;-72
2022/10/10 04:15:01;;;;;;;15.40;12.50;;;19.30;91.90;;;;;;5033542;28;20029;-70
2022/10/10 04:17:26;;;;;;;17.55;12.68;;;19.20;91.90;;;;;;5032742;28;20367;-75
2022/10/10 04:19:52;;;;;;;15.27;12.18;;;19.20;91.90;;;;;;5032531;28;20041;-72
2022/10/10 04:22:18;;;;;;;15.63;12.15;;;19.20;92.00;;;;;;5032424;28;20018;-71
2022/10/10 04:24:44;;;;;;;17.70;11.77;;;19.20;92.00;;;;;;5032584;28;20025;-67
2022/10/10 04:27:10;;;;;;;14.30;11.48;;;19.20;92.10;;;;;;5032460;28;20368;-71
2022/10/10 04:29:36;;;;;;;17.58;12.10;;;19.20;92.00;;;;;;5032570;28;20021;-73
2022/10/10 04:32:02;;;;;;;16.02;11.52;;;19.20;91.90;;;;;;5032552;28;20113;-71
2022/10/10 04:34:27;;;;;;;16.52;11.45;;;19.10;92.00;;;;;;5032775;28;20440;-72
2022/10/10 04:36:53;;;;;;;15.38;10.85;;;19.20;92.00;;;;;;5032355;28;20104;-71
2022/10/10 04:39:19;;;;;;;16.05;11.43;;;19.10;92.00;;;;;;5032676;28;20380;-70
2022/10/10 04:41:48;;;;;;;14.68;10.77;;;19.10;91.90;;;;;;5032392;28;20049;-72
2022/10/10 04:44:15;;;;;;;13.60;10.50;;;19.10;92.10;;;;;;5032465;28;20108;-73
2022/10/10 04:46:41;;;;;;;18.63;11.07;;;19.10;92.30;;;;;;5014660;28;20471;-72
2022/10/10 04:49:07;;;;;;;12.48;9.93;;;19.10;92.10;;;;;;5032372;28;20049;-72
2022/10/10 04:51:32;;;;;;;14.30;10.80;;;19.10;92.00;;;;;;5032098;28;20034;-74
2022/10/10 04:53:58;;;;;;;17.17;10.70;;;19.10;92.00;;;;;;5032210;28;20022;-71
2022/10/10 04:56:25;;;;;;;16.63;10.88;;;19.10;92.10;;;;;;5014281;28;20064;-73
2022/10/10 04:58:51;;;;;;;14.95;11.10;;;19.10;92.00;;;;;;5032184;28;20462;-74
2022/10/10 05:01:17;;;;;;;16.05;10.75;;;19.10;92.00;;;;;;5032336;28;20022;-71
2022/10/10 05:03:42;;;;;;;17.27;11.27;;;19.10;92.00;;;;;;5032115;28;20426;-70
2022/10/10 05:06:08;;;;;;;15.52;11.57;;;19.10;92.10;;;;;;5032205;28;20474;-71
2022/10/10 05:08:34;;;;;;;15.32;10.77;;;19.10;92.00;;;;;;5032214;28;20402;-73
2022/10/10 05:11:00;;;;;;;13.60;9.95;;;19.10;92.00;;;;;;5034436;28;20109;-71
2022/10/10 05:13:26;;;;;;;15.70;11.10;;;19.10;92.10;;;;;;5036018;28;20025;-69
2022/10/10 05:15:52;;;;;;;16.33;11.48;;;19.10;91.90;;;;;;5035770;28;20025;-71
2022/10/10 05:18:19;;;;;;;15.15;11.32;;;19.10;92.00;;;;;;5035838;28;20029;-71
2022/10/10 05:20:46;;;;;;;12.98;10.80;;;19.10;91.90;;;;;;5035829;28;20017;-71
2022/10/10 05:23:13;;;;;;;15.93;10.63;;;19.10;91.90;;;;;;5036199;28;20037;-73
2022/10/10 05:25:39;;;;;;;16.98;10.57;;;19.10;91.90;;;;;;5036321;28;20033;-70
2022/10/10 05:28:05;;;;;;;15.60;10.40;;;19.10;91.90;;;;;;5035416;28;20348;-70
2022/10/10 05:30:30;;;;;;;15.02;10.80;;;19.00;91.90;;;;;;5035031;28;20036;-70
2022/10/10 05:32:56;;;;;;;16.13;11.40;;;19.00;92.00;;;;;;5035319;28;20029;-72
2022/10/10 05:35:22;;;;;;;18.38;9.98;;;19.10;92.00;;;;;;5035240;28;20038;-71
2022/10/10 05:37:48;;;;;;;13.73;10.52;;;19.00;91.90;;;;;;5035371;28;20025;-69
2022/10/10 05:40:13;;;;;;;18.17;10.93;;;19.00;91.90;;;;;;5035399;28;20034;-70
2022/10/10 05:42:39;;;;;;;15.90;11.60;;;19.00;91.90;;;;;;5017100;28;20029;-71
2022/10/10 05:45:05;;;;;;;20.58;10.82;;;19.00;91.80;;;;;;5034932;28;20025;-72
2022/10/10 05:47:31;;;;;;;13.25;11.18;;;19.10;91.90;;;;;;5035313;28;20101;-73
2022/10/10 05:49:57;;;;;;;15.02;11.23;;;19.10;91.70;;;;;;5035564;28;20100;-74
2022/10/10 05:52:22;;;;;;;15.80;11.25;;;19.10;91.70;;;;;;5035110;28;20470;-70
2022/10/10 05:54:50;;;;;;;15.25;10.88;;;19.20;91.70;;;;;;5034643;28;20115;-70
2022/10/10 05:57:15;;;;;;;16.27;11.23;;;19.20;91.50;;;;;;5034416;28;20057;-71
2022/10/10 05:59:41;;;;;;;17.27;11.13;;;19.30;91.60;;;;;;5034491;28;20424;-69
2022/10/10 06:02:07;;;;;;;19.08;11.00;;;19.30;91.50;;;;;;5034764;28;20021;-69
2022/10/10 06:04:32;;;;;;;19.80;11.25;;;19.30;91.50;;;;;;5034829;28;20025;-69
2022/10/10 06:06:58;;;;;;;15.50;10.43;;;19.30;91.30;;;;;;5034372;28;20112;-70
2022/10/10 06:09:24;;;;;;;19.48;11.20;;;19.40;91.40;;;;;;5034330;28;20498;-70
2022/10/10 06:11:49;;;;;;;16.52;10.43;;;19.40;91.30;;;;;;5034447;28;20080;-70
2022/10/10 06:14:15;;;;;;;16.85;10.48;;;19.40;91.30;;;;;;5034390;28;20104;-71
2022/10/10 06:16:43;;;;;;;16.25;10.48;;;19.40;91.10;;;;;;5034449;28;20025;-70
2022/10/10 06:19:09;;;;;;;14.25;10.18;;;19.60;91.10;;;;;;5034008;28;20026;-69
2022/10/10 06:21:35;;;;;;;18.20;10.65;;;19.70;90.90;;;;;;5033925;28;20028;-71
2022/10/10 06:24:00;;;;;;;18.75;11.18;;;19.80;90.70;;;;;;5034108;28;20383;-71
2022/10/10 06:26:26;;;;;;;19.27;11.43;;;19.80;90.60;;;;;;5034005;28;20421;-69
2022/10/10 06:28:52;;;;;;;17.75;11.95;;;19.90;90.50;;;;;;5034081;28;20120;-71
2022/10/10 06:31:18;;;;;;;17.98;10.95;;;20.00;90.20;;;;;;5016462;28;20037;-72
2022/10/10 06:33:45;;;;;;;19.40;10.05;;;20.10;90.10;;;;;;5033994;28;20029;-69
2022/10/10 06:36:12;;;;;;;14.68;10.43;;;20.10;90.20;;;;;;5034016;28;20081;-70
2022/10/10 06:38:40;;;;;;;15.77;10.05;;;20.20;89.70;;;;;;5034152;28;20100;-73
2022/10/10 06:41:06;;;;;;;17.33;10.25;;;20.30;89.00;;;;;;5033782;28;20079;-72
2022/10/10 06:43:32;;;;;;;19.42;10.27;;;20.30;88.70;;;;;;5033904;28;20029;-72
2022/10/10 06:45:59;;;;;;;17.63;9.90;;;20.30;88.70;;;;;;5033600;28;20075;-71
2022/10/10 06:48:25;;;;;;;15.05;10.68;;;20.40;88.60;;;;;;5034007;28;20033;-72
2022/10/10 06:50:59;;;;;;;13.32;10.25;;;20.40;88.10;;;;;;5034075;28;20021;-71
2022/10/10 06:53:25;;;;;;;;;;;20.40;87.90;;;;;;5034220;28;20025;-73
2022/10/10 06:55:53;;;;;;;16.52;10.05;;;20.50;88.50;;;;;;5033746;28;19948;-71
2022/10/10 06:58:19;;;;;;;17.52;11.30;;;20.60;87.90;;;;;;5033130;28;20041;-69
2022/10/10 07:00:53;;;;;;;17.33;10.77;;;20.70;87.20;;;;;;5033491;28;20025;-72
2022/10/10 07:03:20;;;;;;;18.63;11.30;;;20.80;87.00;;;;;;5033315;28;20478;-70
2022/10/10 07:05:51;;;;;;;17.42;10.18;;;20.90;86.70;;;;;;5033134;28;20041;-71
2022/10/10 07:08:16;;;;;;;15.65;11.23;;;21.00;86.30;;;;;;5033431;28;20474;-73
2022/10/10 07:10:42;;;;;;;18.35;10.80;;;21.10;86.00;;;;;;5032975;28;20029;-71
2022/10/10 07:13:08;;;;;;;20.17;10.95;;;21.10;85.80;;;;;;5033473;28;20410;-71
2022/10/10 07:15:33;;;;;;;19.20;10.00;;;21.20;85.50;;;;;;5033014;28;20034;-70
2022/10/10 07:17:59;;;;;;;16.67;10.02;;;21.30;85.40;;;;;;5033385;28;20029;-72
2022/10/10 07:20:26;;;;;;;17.55;9.32;;;21.30;84.70;;;;;;5033046;28;20146;-69
2022/10/10 07:22:51;;;;;;;18.80;10.65;;;21.40;84.20;;;;;;5015396;28;20045;-70
2022/10/10 07:25:17;;;;;;;15.07;9.05;;;21.50;83.50;;;;;;5032956;28;20579;-70
2022/10/10 07:27:43;;;;;;;32.53;10.45;;;21.50;83.20;;;;;;5033013;28;20040;-72
2022/10/10 07:30:09;;;;;;;17.98;10.27;;;21.50;83.00;;;;;;5032942;28;20018;-70
2022/10/10 07:32:35;;;;;;;21.13;9.65;;;21.70;83.10;;;;;;5032702;28;20466;-69
2022/10/10 07:35:01;;;;;;;15.40;8.95;;;21.70;82.40;;;;;;5032818;28;20017;-72
2022/10/10 07:37:26;;;;;;;20.95;9.45;;;21.60;81.70;;;;;;5032988;28;20026;-70
2022/10/10 07:39:52;;;;;;;17.85;9.50;;;21.70;81.50;;;;;;5032822;28;20127;-71
2022/10/10 07:42:19;;;;;;;19.77;8.70;;;21.70;81.30;;;;;;5032622;28;20060;-74
2022/10/10 07:44:44;;;;;;;17.33;9.27;;;21.80;81.30;;;;;;5032826;28;20128;-72
2022/10/10 07:47:10;;;;;;;16.95;9.38;;;21.80;81.00;;;;;;5032454;28;20028;-73
2022/10/10 07:49:36;;;;;;;13.68;9.35;;;21.80;80.80;;;;;;5032628;28;20029;-71
2022/10/10 07:52:02;;;;;;;18.95;9.50;;;21.70;81.00;;;;;;5032625;28;20037;-73
2022/10/10 07:54:29;;;;;;;13.38;9.50;;;21.70;80.90;;;;;;5032647;28;20378;-71
2022/10/10 07:56:55;;;;;;;13.63;10.07;;;21.70;81.00;;;;;;5032554;28;20402;-74
2022/10/10 07:59:21;;;;;;;14.10;10.43;;;21.70;80.70;;;;;;5032542;28;20049;-72
2022/10/10 08:01:47;;;;;;;19.08;10.90;;;21.70;80.70;;;;;;5014436;28;20102;-71
2022/10/10 08:04:12;;;;;;;19.38;10.27;;;21.70;80.90;;;;;;5032286;28;20530;-70
2022/10/10 08:06:38;;;;;;;14.30;9.77;;;21.60;81.00;;;;;;5032356;28;20083;-69
2022/10/10 08:09:04;;;;;;;16.50;10.02;;;21.70;81.00;;;;;;5032369;28;20406;-72
2022/10/10 08:11:29;;;;;;;16.35;10.68;;;21.70;81.30;;;;;;5032128;28;20395;-72
2022/10/10 08:13:55;;;;;;;16.83;10.57;;;21.80;80.90;;;;;;5032777;28;20029;-72
2022/10/10 08:16:21;;;;;;;16.00;10.18;;;21.80;80.90;;;;;;5032237;28;20029;-71
2022/10/10 08:18:47;;;;;;;15.68;10.43;;;21.80;81.40;;;;;;5032397;28;20116;-73
2022/10/10 08:21:14;;;;;;;16.80;10.38;;;21.80;80.70;;;;;;5032412;28;20025;-71
2022/10/10 08:23:41;;;;;;;15.95;10.60;;;21.90;80.70;;;;;;5032180;28;20072;-71
2022/10/10 08:26:10;;;;;;;17.88;11.00;;;21.90;80.80;;;;;;5031661;28;20029;-72
2022/10/10 08:28:36;;;;;;;20.35;11.40;;;21.90;80.60;;;;;;5032012;28;20482;-69
2022/10/10 08:31:05;;;;;;;19.40;11.52;;;22.00;80.40;;;;;;5032584;28;20498;-72
2022/10/10 08:33:31;;;;;;;15.55;10.82;;;22.00;80.70;;;;;;5032627;28;20022;-73
2022/10/10 08:35:57;;;;;;;16.17;9.98;;;22.00;80.20;;;;;;5032070;28;20056;-73
2022/10/10 08:38:22;;;;;;;17.70;11.02;;;22.10;80.00;;;;;;5032462;28;20033;-72
2022/10/10 08:40:52;;;;;;;15.65;10.70;;;22.10;79.80;;;;;;5031946;28;20151;-70
2022/10/10 08:43:27;;;;;;;18.08;11.07;;;22.10;79.40;;;;;;5031996;28;20331;-72
2022/10/10 08:45:56;;;;;;;12.95;9.20;;;22.20;80.20;;;;;;5033644;28;20416;-73
2022/10/10 08:48:26;;;;;;;14.30;9.52;;;22.30;78.90;;;;;;5035652;28;20025;-73
2022/10/10 08:51:01;;;;;;;12.55;8.32;;;22.30;78.80;;;;;;5035745;28;20041;-73
2022/10/10 08:53:40;;;;;;;15.07;9.88;;;22.40;78.60;;;;;;5017896;28;20040;-73
2022/10/10 08:56:12;;;;;;;17.45;8.57;;;22.50;78.40;;;;;;5035518;28;20029;-71
2022/10/10 08:58:45;;;;;;;16.58;10.27;;;22.50;78.20;;;;;;5035365;28;20041;-74
2022/10/10 09:01:23;;;;;;;18.92;9.32;;;22.60;78.10;;;;;;5035623;28;20064;-71
2022/10/10 09:03:58;;;;;;;17.58;9.15;;;22.60;78.60;;;;;;5035750;28;20053;-70
2022/10/10 09:07:07;;;;;;;15.90;8.68;;;22.70;77.50;;;;;;5017316;28;20129;-74
2022/10/10 09:09:40;;;;;;;14.40;8.13;;;22.70;78.20;;;;;;5003792;28;20037;-75
2022/10/10 09:12:08;;;;;;;18.37;9.23;;;22.80;77.20;;;;;;5035478;28;20053;-73
2022/10/10 09:14:51;;;;;;;13.45;8.40;;;22.80;76.90;;;;;;5035599;28;20026;-73
2022/10/10 09:17:19;;;;;;;13.85;7.60;;;22.90;77.30;;;;;;5035187;28;20022;-73
2022/10/10 09:20:16;;;;;;;13.13;7.05;;;23.00;76.20;;;;;;5035166;28;20048;-73
2022/10/10 09:23:02;;;;;;;11.80;7.57;;;23.00;76.20;;;;;;5035499;28;20366;-72
2022/10/10 09:25:45;;;;;;;17.45;7.55;;;23.00;75.60;;;;;;5035090;28;20032;-70
2022/10/10 09:28:31;;;;;;;12.30;7.15;;;23.10;75.80;;;;;;5035260;28;20455;-74
2022/10/10 09:30:59;;;;;;;13.27;7.88;;;23.20;75.60;;;;;;5034900;28;20063;-72
2022/10/10 09:33:35;;;;;;;11.65;7.25;;;23.20;74.90;;;;;;5035258;28;20094;-72
2022/10/10 09:36:07;;;;;;;13.65;6.65;;;23.30;74.60;;;;;;5017071;28;20387;-73
2022/10/10 09:38:36;;;;;;;17.95;7.70;;;23.30;74.90;;;;;;5034790;28;20039;-71
2022/10/10 09:41:09;;;;;;;14.65;7.80;;;23.40;74.50;;;;;;5035003;28;20021;-71
2022/10/10 09:43:36;;;;;;;15.45;7.65;;;23.50;74.10;;;;;;5017297;28;20025;-70
2022/10/10 09:46:02;;;;;;;21.35;6.78;;;23.60;73.90;;;;;;5034435;28;20030;-69
2022/10/10 09:48:32;;;;;;;15.57;7.13;;;23.60;73.90;;;;;;5034619;28;20056;-71
2022/10/10 09:51:01;;;;;;;43.78;8.73;;;23.70;74.10;;;;;;5034883;28;20072;-70
2022/10/10 09:53:27;;;;;;;17.90;7.53;;;23.80;73.70;;;;;;5035088;28;20045;-71
2022/10/10 09:55:53;;;;;;;19.10;7.90;;;23.90;73.60;;;;;;5033893;28;20026;-70
2022/10/10 09:58:26;;;;;;;14.73;6.75;;;24.00;73.80;;;;;;5034452;28;20438;-69
2022/10/10 10:00:52;;;;;;;12.57;7.80;;;24.10;73.60;;;;;;5034637;28;20059;-67
2022/10/10 10:03:21;;;;;;;14.05;6.68;;;24.20;73.30;;;;;;5034402;28;20135;-69
2022/10/10 10:05:59;;;;;;;24.90;6.82;;;24.30;73.40;;;;;;5034772;28;20025;-71
2022/10/10 10:08:28;;;;;;;12.38;5.97;;;24.30;72.60;;;;;;5034387;28;20035;-71
2022/10/10 10:10:56;;;;;;;10.38;5.40;;;24.40;73.10;;;;;;5034251;28;20042;-72
2022/10/10 10:13:35;;;;;;;9.48;5.80;;;24.50;72.20;;;;;;5033909;28;20025;-71
2022/10/10 10:16:05;;;;;;;11.20;6.28;;;24.50;72.50;;;;;;5034095;28;20112;-72
2022/10/10 10:18:37;;;;;;;13.00;6.00;;;24.60;72.60;;;;;;5034237;28;20030;-73
2022/10/10 10:21:06;;;;;;;13.77;6.18;;;24.70;72.40;;;;;;5034628;28;20076;-73
2022/10/10 10:23:41;;;;;;;12.93;6.70;;;24.70;71.40;;;;;;5034333;28;20052;-74
2022/10/10 10:26:43;;;;;;;15.52;5.70;;;24.80;71.50;;;;;;5033923;28;20030;-72
2022/10/10 10:29:27;;;;;;;9.35;6.25;;;24.90;70.30;;;;;;5030056;28;20060;-75
2022/10/10 10:32:12;;;;;;;13.25;5.78;;;25.10;71.10;;;;;;5034298;28;20430;-74
2022/10/10 10:34:47;;;;;;;13.95;5.65;;;25.30;69.80;;;;;;5016325;28;20493;-73
2022/10/10 10:37:47;;;;;;;11.07;5.72;;;25.40;69.00;;;;;;5033657;28;20037;-73
2022/10/10 10:40:21;;;;;;;9.73;5.60;;;25.40;68.90;;;;;;5034133;28;20407;-75
2022/10/10 10:43:20;;;;;;;9.25;5.72;;;25.40;68.70;;;;;;5034106;28;20473;-72
2022/10/10 10:45:55;;;;;;;13.65;5.57;;;25.50;68.70;;;;;;5033764;28;20025;-72
2022/10/10 10:48:20;;;;;;;16.17;6.15;;;25.50;68.80;;;;;;5033843;28;20041;-71
2022/10/10 10:50:54;;;;;;;13.20;5.97;;;25.50;69.30;;;;;;5033851;28;20466;-70
2022/10/10 10:53:44;;;;;;;8.57;5.30;;;25.50;69.20;;;;;;5033833;28;20490;-71
2022/10/10 10:56:15;;;;;;;7.88;5.25;;;25.60;67.90;;;;;;5034492;28;20036;-70
2022/10/10 10:58:59;;;;;;;11.48;4.60;;;25.60;67.60;;;;;;5033496;28;20049;-70
2022/10/10 11:01:45;;;;;;;7.45;4.38;;;25.60;67.20;;;;;;5033699;28;20352;-72
2022/10/10 11:04:16;;;;;;;7.25;4.70;;;25.70;66.80;;;;;;5033850;28;20047;-70
2022/10/10 11:06:42;;;;;;;8.43;4.40;;;25.90;67.70;;;;;;5033621;28;20025;-73
2022/10/10 11:09:17;;;;;;;10.50;4.63;;;26.00;67.00;;;;;;5032647;28;20025;-71
2022/10/10 11:11:58;;;;;;;8.05;4.70;;;26.10;66.30;;;;;;5033075;28;20048;-70
2022/10/10 11:14:46;;;;;;;10.52;4.50;;;26.10;66.00;;;;;;5033585;28;20022;-73
2022/10/10 11:17:36;;;;;;;8.70;5.20;;;26.10;65.20;;;;;;5033180;28;20061;-71
2022/10/10 11:20:10;;;;;;;8.25;4.65;;;26.10;65.10;;;;;;5033290;28;20354;-72
2022/10/10 11:22:46;;;;;;;11.43;4.60;;;26.10;65.60;;;;;;5033553;28;20435;-72
2022/10/10 11:25:22;;;;;;;6.93;4.30;;;26.30;64.80;;;;;;5032917;28;20402;-73
2022/10/10 11:28:08;;;;;;;10.85;4.57;;;26.30;65.70;;;;;;5033047;28;20087;-70
2022/10/10 11:30:41;;;;;;;9.05;4.72;;;26.40;65.70;;;;;;5032565;28;20076;-71
2022/10/10 11:33:17;;;;;;;11.60;4.32;;;26.30;66.60;;;;;;5033057;28;20467;-70
2022/10/10 11:35:53;;;;;;;10.80;4.68;;;26.30;67.00;;;;;;5033170;28;20088;-70
2022/10/10 11:38:43;;;;;;;10.98;4.63;;;26.30;67.20;;;;;;5032804;28;20416;-72
2022/10/10 11:41:30;;;;;;;11.15;4.63;;;26.20;66.50;;;;;;5032919;28;20033;-70
2022/10/10 11:44:00;;;;;;;8.00;4.60;;;26.30;66.50;;;;;;5034078;28;20022;-73
2022/10/10 11:46:44;;;;;;;10.30;4.53;;;26.30;67.40;;;;;;5033605;28;20045;-72
2022/10/10 11:49:12;;;;;;;8.55;4.60;;;26.40;66.90;;;;;;5033349;28;20032;-73
2022/10/10 11:51:44;;;;;;;9.20;4.60;;;26.50;66.60;;;;;;5032969;28;20073;-72
2022/10/10 11:54:30;;;;;;;10.00;4.70;;;26.50;66.90;;;;;;5033270;28;20087;-73
2022/10/10 11:57:04;;;;;;;7.70;4.40;;;26.50;66.50;;;;;;5033059;28;20017;-73
2022/10/10 11:59:32;;;;;;;8.38;4.72;;;26.40;67.50;;;;;;5032706;28;20372;-72
2022/10/10 12:02:08;;;;;;;7.95;5.00;;;26.30;67.60;;;;;;5032635;28;20033;-72
2022/10/10 12:04:35;;;;;;;9.88;4.43;;;26.30;67.50;;;;;;5032665;28;20018;-70
2022/10/10 12:07:12;;;;;;;11.40;5.20;;;26.20;67.40;;;;;;5032342;28;20535;-71
2022/10/10 12:09:42;;;;;;;10.10;4.45;;;26.10;67.60;;;;;;5032708;28;20045;-73
2022/10/10 12:12:29;;;;;;;9.45;4.47;;;26.00;67.30;;;;;;5032408;28;20045;-75
2022/10/10 12:15:00;;;;;;;9.55;4.55;;;25.80;66.70;;;;;;5032608;28;20392;-70
2022/10/10 12:17:34;;;;;;;10.20;4.38;;;25.70;67.90;;;;;;5032538;28;20028;-71
2022/10/10 12:20:33;;;;;;;6.13;4.30;;;25.70;68.40;;;;;;5034643;28;20029;-72
2022/10/10 12:23:13;;;;;;;16.63;4.75;;;25.70;67.70;;;;;;5036677;28;20025;-74
2022/10/10 12:25:41;;;;;;;9.13;4.82;;;25.70;68.70;;;;;;5036154;28;20025;-70
2022/10/10 12:28:13;;;;;;;7.35;4.15;;;25.70;69.10;;;;;;5036248;28;20497;-72
2022/10/10 12:30:53;;;;;;;8.48;3.67;;;25.50;69.50;;;;;;5036650;28;20018;-73
2022/10/10 12:33:28;;;;;;;9.02;3.90;;;25.50;70.40;;;;;;5036048;28;20138;-72
2022/10/10 12:35:54;;;;;;;11.45;3.90;;;25.50;69.40;;;;;;5036238;28;20047;-74
2022/10/10 12:38:24;;;;;;;10.45;3.97;;;25.50;70.60;;;;;;5036085;28;20025;-74
2022/10/10 12:40:56;;;;;;;9.70;4.25;;;25.50;71.30;;;;;;5036233;28;20025;-74
2022/10/10 12:43:46;;;;;;;10.52;4.45;;;25.70;71.30;;;;;;5036431;28;20025;-73
2022/10/10 12:46:29;;;;;;;7.22;3.78;;;25.90;69.70;;;;;;5036741;28;20482;-73
2022/10/10 12:49:19;;;;;;;8.25;3.72;;;26.20;69.20;;;;;;5018461;28;20108;-70